createdAt,value
2018-09-13T00:00:49.651Z,17.82
2018-09-13T00:03:17.029Z,16.37
2018-09-13T00:05:44.433Z,16.60
2018-09-13T00:08:11.834Z,16.77
2018-09-13T00:10:39.720Z,17.23
2018-09-13T00:13:07.671Z,17.77
2018-09-13T00:15:35.745Z,17.37
2018-09-13T00:18:03.184Z,20.15
2018-09-13T00:20:31.483Z,19.48
2018-09-13T00:22:58.969Z,17.80
2018-09-13T00:27:57.409Z,18.48
2018-09-13T00:30:24.934Z,18.90
2018-09-13T00:32:52.545Z,19.98
2018-09-13T00:35:20.910Z,17.50
2018-09-13T00:37:49.008Z,17.45
2018-09-13T00:40:16.446Z,18.60
2018-09-13T00:42:43.849Z,17.45
2018-09-13T00:45:11.305Z,18.65
2018-09-13T00:47:44.462Z,18.35
2018-09-13T00:50:12.851Z,19.75
2018-09-13T00:52:40.197Z,18.15
2018-09-13T00:55:07.656Z,18.65
2018-09-13T00:57:35.087Z,23.32
2018-09-13T01:00:02.539Z,16.57
2018-09-13T01:02:29.913Z,16.42
2018-09-13T01:04:57.294Z,17.65
2018-09-13T01:07:24.659Z,16.30
2018-09-13T01:09:53.440Z,16.62
2018-09-13T01:12:21.253Z,18.12
2018-09-13T01:14:48.635Z,17.32
2018-09-13T01:17:16.399Z,16.52
2018-09-13T01:19:43.807Z,18.17
2018-09-13T01:22:11.200Z,17.32
2018-09-13T01:24:38.611Z,20.72
2018-09-13T01:27:05.996Z,17.80
2018-09-13T01:29:33.402Z,18.60
2018-09-13T01:32:00.856Z,17.07
2018-09-13T01:34:29.184Z,17.57
2018-09-13T01:36:56.580Z,17.62
2018-09-13T01:39:24.607Z,19.35
2018-09-13T01:41:52.059Z,18.45
2018-09-13T01:44:19.468Z,18.70
2018-09-13T01:46:46.903Z,19.57
2018-09-13T01:49:14.458Z,36.25
2018-09-13T01:51:41.890Z,18.60
2018-09-13T01:54:09.843Z,22.77
2018-09-13T01:56:38.051Z,19.27
2018-09-13T01:59:09.656Z,18.30
2018-09-13T02:01:36.991Z,18.50
2018-09-13T02:04:04.427Z,20.90
2018-09-13T02:06:31.785Z,18.70
2018-09-13T02:08:59.306Z,20.95
2018-09-13T02:11:26.700Z,19.55
2018-09-13T02:13:54.651Z,20.85
2018-09-13T02:16:22.465Z,20.62
2018-09-13T02:18:49.872Z,21.93
2018-09-13T02:21:17.348Z,21.35
2018-09-13T02:23:44.892Z,19.70
2018-09-13T02:26:12.450Z,23.20
2018-09-13T02:28:40.042Z,21.07
2018-09-13T02:31:07.512Z,20.40
2018-09-13T02:33:35.674Z,22.50
2018-09-13T02:36:03.106Z,20.97
2018-09-13T02:38:31.472Z,20.40
2018-09-13T02:40:58.940Z,21.95
2018-09-13T02:43:30.394Z,22.85
2018-09-13T02:45:57.884Z,25.10
2018-09-13T02:48:25.295Z,21.60
2018-09-13T02:50:52.700Z,21.33
2018-09-13T02:53:21.113Z,22.00
2018-09-13T02:55:48.835Z,21.30
2018-09-13T02:58:16.215Z,21.40
2018-09-13T03:03:11.511Z,21.33
2018-09-13T03:05:38.906Z,21.95
2018-09-13T03:08:06.292Z,24.15
2018-09-13T03:10:33.698Z,20.60
2018-09-13T03:13:01.140Z,21.75
2018-09-13T03:15:28.524Z,21.97
2018-09-13T03:18:00.430Z,22.42
2018-09-13T03:20:27.791Z,21.82
2018-09-13T03:22:55.148Z,21.97
2018-09-13T03:25:23.758Z,22.15
2018-09-13T03:27:51.470Z,23.30
2018-09-13T03:30:19.656Z,21.40
2018-09-13T03:32:48.458Z,21.33
2018-09-13T03:35:22.885Z,21.82
2018-09-13T03:37:50.253Z,21.82
2018-09-13T03:40:17.691Z,22.42
2018-09-13T03:42:45.047Z,23.30
2018-09-13T03:45:12.715Z,21.87
2018-09-13T03:47:40.221Z,24.12
2018-09-13T03:50:08.331Z,25.10
2018-09-13T03:52:40.161Z,27.93
2018-09-13T03:55:07.583Z,26.35
2018-09-13T03:57:37.988Z,25.72
2018-09-13T04:00:09.606Z,25.62
2018-09-13T04:02:36.994Z,23.80
2018-09-13T04:05:04.512Z,21.45
2018-09-13T04:07:31.865Z,21.37
2018-09-13T04:10:00.062Z,21.75
2018-09-13T04:12:27.455Z,25.70
2018-09-13T04:14:54.964Z,27.70
2018-09-13T04:17:22.336Z,23.92
2018-09-13T04:19:49.741Z,23.15
2018-09-13T04:22:17.674Z,24.72
2018-09-13T04:24:45.454Z,24.95
2018-09-13T04:27:13.459Z,24.12
2018-09-13T04:29:41.234Z,27.00
2018-09-13T04:32:08.662Z,24.47
2018-09-13T04:34:36.500Z,21.87
2018-09-13T04:37:03.877Z,23.60
2018-09-13T04:39:31.240Z,22.93
2018-09-13T04:41:58.714Z,21.23
2018-09-13T04:44:26.796Z,23.52
2018-09-13T04:46:54.210Z,22.35
2018-09-13T04:51:48.498Z,27.45
2018-09-13T04:54:19.868Z,24.52
2018-09-13T04:56:47.202Z,23.40
2018-09-13T04:59:14.506Z,23.30
2018-09-13T05:01:42.643Z,25.08
2018-09-13T05:04:10.706Z,27.05
2018-09-13T05:06:38.152Z,25.17
2018-09-13T05:09:08.865Z,22.13
2018-09-13T05:11:36.173Z,24.67
2018-09-13T05:14:03.490Z,26.25
2018-09-13T05:16:30.793Z,31.27
2018-09-13T05:18:58.213Z,22.87
2018-09-13T05:21:25.507Z,22.22
2018-09-13T05:23:52.780Z,22.65
2018-09-13T05:26:20.367Z,23.77
2018-09-13T05:28:47.665Z,26.52
2018-09-13T05:31:14.970Z,23.47
2018-09-13T05:33:42.277Z,24.18
2018-09-13T05:36:09.625Z,23.40
2018-09-13T05:38:36.983Z,22.27
2018-09-13T05:41:04.282Z,23.22
2018-09-13T05:43:31.625Z,23.45
2018-09-13T05:45:58.933Z,22.58
2018-09-13T05:48:26.262Z,23.87
2018-09-13T05:50:53.842Z,21.73
2018-09-13T05:53:21.413Z,21.10
2018-09-13T05:55:48.661Z,24.60
2018-09-13T05:58:15.922Z,22.27
2018-09-13T06:00:43.215Z,22.50
2018-09-13T06:03:10.517Z,22.58
2018-09-13T06:05:38.415Z,20.32
2018-09-13T06:08:05.771Z,22.10
2018-09-13T06:10:33.786Z,24.07
2018-09-13T06:13:01.156Z,21.85
2018-09-13T06:15:28.486Z,21.80
2018-09-13T06:17:55.912Z,26.80
2018-09-13T06:20:23.530Z,23.70
2018-09-13T06:22:50.867Z,23.20
2018-09-13T06:25:18.173Z,23.00
2018-09-13T06:27:45.456Z,23.45
2018-09-13T06:30:12.763Z,23.47
2018-09-13T06:32:40.058Z,23.12
2018-09-13T06:35:07.350Z,22.32
2018-09-13T06:37:34.666Z,23.90
2018-09-13T06:40:02.054Z,22.85
2018-09-13T06:42:29.426Z,23.55
2018-09-13T06:44:56.675Z,21.80
2018-09-13T06:47:23.925Z,22.13
2018-09-13T06:49:51.279Z,25.45
2018-09-13T06:52:18.885Z,22.13
2018-09-13T06:54:46.196Z,23.05
2018-09-13T06:57:13.480Z,24.02
2018-09-13T06:59:40.782Z,20.92
2018-09-13T07:02:08.026Z,22.90
2018-09-13T07:04:35.386Z,20.92
2018-09-13T07:07:02.681Z,21.42
2018-09-13T07:09:29.948Z,20.45
2018-09-13T07:11:57.299Z,22.77
2018-09-13T07:14:24.582Z,21.62
2018-09-13T07:16:51.845Z,20.92
2018-09-13T07:19:19.161Z,21.15
2018-09-13T07:21:46.513Z,22.45
2018-09-13T07:24:13.827Z,22.20
2018-09-13T07:26:41.149Z,19.77
2018-09-13T07:29:08.425Z,22.30
2018-09-13T07:31:35.809Z,21.52
2018-09-13T07:34:03.057Z,21.37
2018-09-13T07:36:30.607Z,20.80
2018-09-13T07:38:58.529Z,20.88
2018-09-13T07:41:25.827Z,19.62
2018-09-13T07:43:53.143Z,18.77
2018-09-13T07:46:20.467Z,20.25
2018-09-13T07:48:47.725Z,19.12
2018-09-13T07:51:15.060Z,19.70
2018-09-13T07:53:42.350Z,18.80
2018-09-13T07:56:09.729Z,18.82
2018-09-13T07:58:37.036Z,18.02
2018-09-13T08:01:04.366Z,20.55
2018-09-13T08:03:32.057Z,17.92
2018-09-13T08:05:59.350Z,20.32
2018-09-13T08:08:26.686Z,17.02
2018-09-13T08:10:53.949Z,17.27
2018-09-13T08:13:21.455Z,19.75
2018-09-13T08:15:48.778Z,18.73
2018-09-13T08:18:16.208Z,15.85
2018-09-13T08:20:43.567Z,16.87
2018-09-13T08:23:10.870Z,18.20
2018-09-13T08:25:38.434Z,16.65
2018-09-13T08:28:06.282Z,16.20
2018-09-13T08:30:33.823Z,15.63
2018-09-13T08:33:01.357Z,18.23
2018-09-13T08:35:28.902Z,17.32
2018-09-13T08:37:56.447Z,16.85
2018-09-13T08:40:24.804Z,16.30
2018-09-13T08:42:53.042Z,17.07
2018-09-13T08:45:20.341Z,18.25
2018-09-13T08:47:47.953Z,17.60
2018-09-13T08:50:15.392Z,18.23
2018-09-13T08:52:42.685Z,16.35
2018-09-13T08:55:10.555Z,20.95
2018-09-13T08:57:38.273Z,17.25
2018-09-13T09:00:06.740Z,17.75
2018-09-13T09:02:34.322Z,17.80
2018-09-13T09:05:01.604Z,19.57
2018-09-13T09:07:28.918Z,17.20
2018-09-13T09:09:56.848Z,17.57
2018-09-13T09:12:24.218Z,21.27
2018-09-13T09:14:51.524Z,18.20
2018-09-13T09:17:18.879Z,19.30
2018-09-13T09:19:46.144Z,16.97
2018-09-13T09:22:13.435Z,18.25
2018-09-13T09:24:40.735Z,19.10
2018-09-13T09:27:08.338Z,18.00
2018-09-13T09:29:35.667Z,18.23
2018-09-13T09:32:02.958Z,19.60
2018-09-13T09:34:30.276Z,17.45
2018-09-13T09:36:57.587Z,18.37
2018-09-13T09:39:24.897Z,18.40
2018-09-13T09:41:52.159Z,18.45
2018-09-13T09:44:19.474Z,18.60
2018-09-13T09:46:46.776Z,18.95
2018-09-13T09:49:14.163Z,18.73
2018-09-13T09:51:41.835Z,19.48
2018-09-13T09:54:09.181Z,19.92
2018-09-13T09:56:36.587Z,19.82
2018-09-13T09:59:03.899Z,19.82
2018-09-13T10:01:33.851Z,20.82
2018-09-13T10:04:01.360Z,19.52
2018-09-13T10:06:28.646Z,19.05
2018-09-13T10:08:56.747Z,17.92
2018-09-13T10:11:23.967Z,19.75
2018-09-13T10:13:51.265Z,18.82
2018-09-13T10:16:23.932Z,18.20
2018-09-13T10:18:56.577Z,18.12
2018-09-13T10:21:29.253Z,19.20
2018-09-13T10:24:01.918Z,17.25
2018-09-13T10:26:34.679Z,19.92
2018-09-13T10:29:07.350Z,19.40
2018-09-13T10:31:40.136Z,18.27
2018-09-13T10:34:12.873Z,18.20
2018-09-13T10:36:45.535Z,19.57
2018-09-13T10:39:18.415Z,18.00
2018-09-13T10:41:52.131Z,17.77
2018-09-13T10:44:24.921Z,18.55
2018-09-13T10:46:57.667Z,16.97
2018-09-13T10:49:30.422Z,18.40
2018-09-13T10:51:59.859Z,17.75
2018-09-13T10:54:33.552Z,17.30
2018-09-13T10:57:05.174Z,18.85
2018-09-13T10:59:32.545Z,17.98
2018-09-13T11:01:59.985Z,18.75
2018-09-13T11:04:27.338Z,19.37
2018-09-13T11:06:54.575Z,17.82
2018-09-13T11:09:21.884Z,19.30
2018-09-13T11:11:50.103Z,20.60
2018-09-13T11:14:22.682Z,18.60
2018-09-13T11:16:50.022Z,21.97
2018-09-13T11:19:17.410Z,17.80
2018-09-13T11:21:44.762Z,18.20
2018-09-13T11:24:12.076Z,17.10
2018-09-13T11:26:39.486Z,18.98
2018-09-13T11:29:06.895Z,18.65
2018-09-13T11:31:34.286Z,18.27
2018-09-13T11:34:01.619Z,17.98
2018-09-13T11:36:29.304Z,17.55
2018-09-13T11:38:56.618Z,16.55
2018-09-13T11:41:24.211Z,17.70
2018-09-13T11:43:51.523Z,17.12
2018-09-13T11:46:18.914Z,17.75
2018-09-13T11:48:46.455Z,16.37
2018-09-13T11:51:13.829Z,18.95
2018-09-13T11:53:41.135Z,18.10
2018-09-13T11:56:08.422Z,18.55
2018-09-13T11:58:35.726Z,18.12
2018-09-13T12:01:03.061Z,17.00
2018-09-13T12:03:30.329Z,17.67
2018-09-13T12:05:58.343Z,18.20
2018-09-13T12:08:25.644Z,17.00
2018-09-13T12:10:52.931Z,17.45
2018-09-13T12:13:20.249Z,19.40
2018-09-13T12:15:47.559Z,17.17
2018-09-13T12:18:14.909Z,17.90
2018-09-13T12:20:42.163Z,18.30
2018-09-13T12:23:09.425Z,18.60
2018-09-13T12:25:36.766Z,18.25
2018-09-13T12:28:04.138Z,18.20
2018-09-13T12:30:31.406Z,18.05
2018-09-13T12:32:58.673Z,16.65
2018-09-13T12:35:25.983Z,16.95
2018-09-13T12:37:53.691Z,17.55
2018-09-13T12:40:21.033Z,18.02
2018-09-13T12:42:48.910Z,17.23
2018-09-13T12:45:16.250Z,20.32
2018-09-13T12:47:43.554Z,19.40
2018-09-13T12:50:10.913Z,17.65
2018-09-13T12:52:38.350Z,17.80
2018-09-13T12:55:05.793Z,18.35
2018-09-13T12:57:33.092Z,17.40
2018-09-13T13:00:00.430Z,18.80
2018-09-13T13:02:27.742Z,16.65
2018-09-13T13:04:55.438Z,17.55
2018-09-13T13:07:22.740Z,17.30
2018-09-13T13:09:50.023Z,17.02
2018-09-13T13:12:17.348Z,17.55
2018-09-13T13:14:44.689Z,17.57
2018-09-13T13:17:11.963Z,19.05
2018-09-13T13:19:39.281Z,17.25
2018-09-13T13:22:06.706Z,17.10
2018-09-13T13:24:34.055Z,16.93
2018-09-13T13:27:01.368Z,17.67
2018-09-13T13:29:28.685Z,17.42
2018-09-13T13:31:56.067Z,17.87
2018-09-13T13:34:23.370Z,18.70
2018-09-13T13:36:50.755Z,16.80
2018-09-13T13:39:18.089Z,16.75
2018-09-13T13:41:45.437Z,18.10
2018-09-13T13:44:12.737Z,16.67
2018-09-13T13:46:40.012Z,17.02
2018-09-13T13:49:07.489Z,15.72
2018-09-13T13:51:34.794Z,17.70
2018-09-13T13:54:02.147Z,16.70
2018-09-13T13:56:29.416Z,16.05
2018-09-13T13:58:56.924Z,15.68
2018-09-13T14:01:24.251Z,16.10
2018-09-13T14:03:51.568Z,16.10
2018-09-13T14:06:18.827Z,18.55
2018-09-13T14:08:46.159Z,17.70
2018-09-13T14:11:13.450Z,16.02
2018-09-13T14:13:41.049Z,17.50
2018-09-13T14:16:08.605Z,17.87
2018-09-13T14:18:35.944Z,16.80
2018-09-13T14:21:03.258Z,17.95
2018-09-13T14:23:30.679Z,16.17
2018-09-13T14:25:58.461Z,17.30
2018-09-13T14:28:25.762Z,19.82
2018-09-13T14:30:53.098Z,17.82
2018-09-13T14:33:20.486Z,16.87
2018-09-13T14:35:47.775Z,17.98
2018-09-13T14:38:15.124Z,17.62
2018-09-13T14:40:42.445Z,16.10
2018-09-13T14:43:09.774Z,16.80
2018-09-13T14:45:37.201Z,17.65
2018-09-13T14:48:05.263Z,16.60
2018-09-13T14:50:32.561Z,19.45
2018-09-13T14:52:59.894Z,16.97
2018-09-13T14:55:27.313Z,17.98
2018-09-13T14:57:54.648Z,17.07
2018-09-13T15:00:22.610Z,18.00
2018-09-13T15:02:49.918Z,17.20
2018-09-13T15:05:17.329Z,17.73
2018-09-13T15:07:44.648Z,17.67
2018-09-13T15:10:12.054Z,17.37
2018-09-13T15:12:39.882Z,18.15
2018-09-13T15:15:07.401Z,17.00
2018-09-13T15:17:34.760Z,17.10
2018-09-13T15:20:02.848Z,16.35
2018-09-13T15:22:30.291Z,17.32
2018-09-13T15:24:57.593Z,18.02
2018-09-13T15:27:24.907Z,17.70
2018-09-13T15:29:52.312Z,18.92
2018-09-13T15:32:19.740Z,16.93
2018-09-13T15:34:47.041Z,17.52
2018-09-13T15:37:14.339Z,17.37
2018-09-13T15:39:41.602Z,18.32
2018-09-13T15:42:08.920Z,18.05
2018-09-13T15:44:36.287Z,17.05
2018-09-13T15:47:03.647Z,18.32
2018-09-13T15:49:30.935Z,17.98
2018-09-13T15:51:58.284Z,16.67
2018-09-13T15:54:25.603Z,18.05
2018-09-13T15:56:52.934Z,16.70
2018-09-13T15:59:20.281Z,19.23
2018-09-13T16:01:47.614Z,17.77
2018-09-13T16:04:14.931Z,16.17
2018-09-13T16:06:42.230Z,17.60
2018-09-13T16:09:10.151Z,16.95
2018-09-13T16:11:37.765Z,17.57
2018-09-13T16:14:05.101Z,17.20
2018-09-13T16:16:32.578Z,17.98
2018-09-13T16:18:59.918Z,18.80
2018-09-13T16:21:27.218Z,18.55
2018-09-13T16:23:54.523Z,17.92
2018-09-13T16:26:21.927Z,18.65
2018-09-13T16:28:49.198Z,17.80
2018-09-13T16:31:16.584Z,17.52
2018-09-13T16:33:43.788Z,17.60
2018-09-13T16:36:16.616Z,16.32
2018-09-13T16:38:49.381Z,16.57
2018-09-13T16:41:22.090Z,17.42
2018-09-13T16:43:54.853Z,19.00
2018-09-13T16:46:27.586Z,17.90
2018-09-13T16:48:55.163Z,16.93
2018-09-13T16:51:22.456Z,16.48
2018-09-13T16:53:49.776Z,17.40
2018-09-13T16:56:17.060Z,18.32
2018-09-13T16:58:44.408Z,20.12
2018-09-13T17:01:11.784Z,18.75
2018-09-13T17:03:39.094Z,16.05
2018-09-13T17:06:06.387Z,18.40
2018-09-13T17:08:33.682Z,18.40
2018-09-13T17:11:01.024Z,18.65
2018-09-13T17:13:28.376Z,16.40
2018-09-13T17:15:55.792Z,16.55
2018-09-13T17:18:23.097Z,18.62
2018-09-13T17:20:50.410Z,16.02
2018-09-13T17:23:18.487Z,16.90
2018-09-13T17:25:45.830Z,16.65
2018-09-13T17:28:13.214Z,15.95
2018-09-13T17:30:40.567Z,18.55
2018-09-13T17:33:07.869Z,16.70
2018-09-13T17:35:35.234Z,21.85
2018-09-13T17:38:03.252Z,16.35
2018-09-13T17:42:57.503Z,16.20
2018-09-13T17:45:24.895Z,16.52
2018-09-13T17:47:52.505Z,16.60
2018-09-13T17:50:20.053Z,17.60
2018-09-13T17:52:47.559Z,17.05
2018-09-13T17:55:15.921Z,20.23
2018-09-13T17:57:43.293Z,17.42
2018-09-13T18:00:11.610Z,17.95
2018-09-13T18:02:39.022Z,18.10
2018-09-13T18:05:06.744Z,19.05
2018-09-13T18:07:34.244Z,17.48
2018-09-13T18:10:01.667Z,17.98
2018-09-13T18:12:29.043Z,18.92
2018-09-13T18:14:56.466Z,18.00
2018-09-13T18:17:23.918Z,17.02
2018-09-13T18:19:51.340Z,18.12
2018-09-13T18:22:20.665Z,18.60
2018-09-13T18:24:48.632Z,17.90
2018-09-13T18:27:16.617Z,18.80
2018-09-13T18:29:44.778Z,18.85
2018-09-13T18:32:12.110Z,20.62
2018-09-13T18:34:39.522Z,19.55
2018-09-13T18:37:11.408Z,19.50
2018-09-13T18:39:38.971Z,19.10
2018-09-13T18:42:06.565Z,18.75
2018-09-13T18:44:34.225Z,19.27
2018-09-13T18:47:02.505Z,19.75
2018-09-13T18:49:30.046Z,19.07
2018-09-13T18:52:01.898Z,19.05
2018-09-13T18:54:35.262Z,18.27
2018-09-13T18:57:03.615Z,18.57
2018-09-13T18:59:31.121Z,17.80
2018-09-13T19:01:58.567Z,19.05
2018-09-13T19:04:25.942Z,21.00
2018-09-13T19:06:53.352Z,17.30
2018-09-13T19:09:25.807Z,18.45
2018-09-13T19:11:57.213Z,19.02
2018-09-13T19:14:25.219Z,19.30
2018-09-13T19:16:52.615Z,19.20
2018-09-13T19:19:19.999Z,18.25
2018-09-13T19:21:47.422Z,19.52
2018-09-13T19:24:14.826Z,19.98
2018-09-13T19:26:42.868Z,20.30
2018-09-13T19:29:10.986Z,19.60
2018-09-13T19:31:38.407Z,18.82
2018-09-13T19:34:06.981Z,19.00
2018-09-13T19:36:34.350Z,20.20
2018-09-13T19:39:06.056Z,19.85
2018-09-13T19:41:33.545Z,20.05
2018-09-13T19:44:01.372Z,20.85
2018-09-13T19:46:29.107Z,21.77
2018-09-13T19:48:57.087Z,21.52
2018-09-13T19:51:24.570Z,20.90
2018-09-13T19:53:53.013Z,21.33
2018-09-13T19:56:20.500Z,20.92
2018-09-13T19:58:47.896Z,21.70
2018-09-13T20:01:19.667Z,21.20
2018-09-13T20:03:51.312Z,22.40
2018-09-13T20:06:18.667Z,19.75
2018-09-13T20:08:46.460Z,19.80
2018-09-13T20:11:13.955Z,19.75
2018-09-13T20:13:41.819Z,21.52
2018-09-13T20:16:09.135Z,20.30
2018-09-13T20:18:36.589Z,19.95
2018-09-13T20:21:03.813Z,20.70
2018-09-13T20:23:31.549Z,20.00
2018-09-13T20:25:58.915Z,20.37
2018-09-13T20:28:26.304Z,19.50
2018-09-13T20:30:53.695Z,19.10
2018-09-13T20:33:21.191Z,20.48
2018-09-13T20:35:48.723Z,20.92
2018-09-13T20:38:16.430Z,20.00
2018-09-13T20:40:48.330Z,19.65
2018-09-13T20:43:15.715Z,21.42
2018-09-13T20:45:44.957Z,20.92
2018-09-13T20:48:12.241Z,21.70
2018-09-13T20:50:43.550Z,21.15
2018-09-13T20:53:11.485Z,21.85
2018-09-13T20:55:39.531Z,22.17
2018-09-13T20:58:07.213Z,22.50
2018-09-13T21:00:34.690Z,20.20
2018-09-13T21:03:02.037Z,19.95
2018-09-13T21:05:29.464Z,20.40
2018-09-13T21:07:56.860Z,20.75
2018-09-13T21:10:28.777Z,20.62
2018-09-13T21:13:00.774Z,21.62
2018-09-13T21:15:32.613Z,22.70
2018-09-13T21:18:01.426Z,22.62
2018-09-13T21:20:29.232Z,24.92
2018-09-13T21:22:56.698Z,21.57
2018-09-13T21:25:24.074Z,22.87
2018-09-13T21:27:51.434Z,22.20
2018-09-13T21:30:19.370Z,22.80
2018-09-13T21:32:46.772Z,23.27
2018-09-13T21:35:14.979Z,21.27
2018-09-13T21:37:43.077Z,21.82
2018-09-13T21:40:10.669Z,22.70
2018-09-13T21:42:38.624Z,24.20
2018-09-13T21:45:06.062Z,24.50
2018-09-13T21:47:33.626Z,23.32
2018-09-13T21:50:00.996Z,21.37
2018-09-13T21:52:32.783Z,22.58
2018-09-13T21:55:00.175Z,26.50
2018-09-13T21:57:27.543Z,22.98
2018-09-13T21:59:54.886Z,22.95
2018-09-13T22:02:22.396Z,22.93
2018-09-13T22:04:49.785Z,21.57
2018-09-13T22:07:17.493Z,22.58
2018-09-13T22:09:44.847Z,22.85
2018-09-13T22:12:12.965Z,23.50
2018-09-13T22:14:41.259Z,22.95
2018-09-13T22:17:09.164Z,23.18
2018-09-13T22:19:36.557Z,24.02
2018-09-13T22:22:03.984Z,23.90
2018-09-13T22:24:31.642Z,23.10
2018-09-13T22:27:00.266Z,22.45
2018-09-13T22:29:27.577Z,20.50
2018-09-13T22:31:55.911Z,20.25
2018-09-13T22:34:23.408Z,23.18
2018-09-13T22:36:50.821Z,23.87
2018-09-13T22:39:19.219Z,22.13
2018-09-13T22:41:47.809Z,21.27
2018-09-13T22:44:15.277Z,23.70
2018-09-13T22:46:42.588Z,22.98
2018-09-13T22:49:10.424Z,22.45
2018-09-13T22:51:42.486Z,22.32
2018-09-13T22:54:10.797Z,21.23
2018-09-13T22:56:43.229Z,23.05
2018-09-13T22:59:11.567Z,22.87
2018-09-13T23:01:38.936Z,21.35
2018-09-13T23:04:06.587Z,21.93
2018-09-13T23:06:33.959Z,24.82
2018-09-13T23:09:01.395Z,22.07
2018-09-13T23:11:28.794Z,21.23
2018-09-13T23:13:56.288Z,21.27
2018-09-13T23:16:23.907Z,21.82
2018-09-13T23:18:51.332Z,21.80
2018-09-13T23:21:19.017Z,25.02
2018-09-13T23:23:46.472Z,22.37
2018-09-13T23:26:14.618Z,22.15
2018-09-13T23:28:43.449Z,22.05
2018-09-13T23:31:12.973Z,23.60
2018-09-13T23:33:40.610Z,22.90
2018-09-13T23:36:13.914Z,23.83
2018-09-13T23:38:41.291Z,22.80
2018-09-13T23:41:09.437Z,21.52
2018-09-13T23:43:36.829Z,23.85
2018-09-13T23:46:04.933Z,22.58
2018-09-13T23:48:32.335Z,22.02
2018-09-13T23:50:59.794Z,22.90
2018-09-13T23:53:28.235Z,22.62
2018-09-13T23:55:56.156Z,21.73
2018-09-13T23:58:23.994Z,22.15
